Terminal Aerodrome Forecast
Issued by NWS

Home | Current Version | Previous Version | Text Only | Print | Product List | Glossary On
Versions: 1 2 3 4 5 6 7 8 9 10 11 12 13 14 15 16 17 18 19 20 21
000
FTUS43 KDLH 261120
TAFBRD
TAF
KBRD 261120Z 2612/2712 02012G20KT 3SM -FZRA BR BKN009 OVC015
     FM261300 02010G20KT 2SM -SNPL OVC008
     FM261700 01011G20KT 5SM -RA OVC008
     FM261900 01011G19KT P6SM VCSH OVC008
     FM262200 36010KT P6SM VCSH OVC010
     FM270600 36007KT P6SM OVC008
     FM271000 35006KT P6SM OVC010=

USA.gov is the U.S. government's official web portal to all federal, state and local government web resources and services.